sensor_id;sensor_type;location;lat;lon;timestamp;pressure;altitude;pressure_sealevel;temperature;humidity
8039;BME280;4062;49.844;8.120;2024-03-25T00:00:01;98525.13;;;15.86;57.05
8039;BME280;4062;49.844;8.120;2024-03-25T00:02:13;98516.28;;;15.86;56.93
8039;BME280;4062;49.844;8.120;2024-03-25T00:04:17;98521.63;;;15.86;56.91
8039;BME280;4062;49.844;8.120;2024-03-25T00:06:18;98520.75;;;15.85;57.06
8039;BME280;4062;49.844;8.120;2024-03-25T00:08:19;98525.22;;;15.85;57.06
8039;BME280;4062;49.844;8.120;2024-03-25T00:10:21;98520.84;;;15.84;57.12
8039;BME280;4062;49.844;8.120;2024-03-25T00:12:22;98522.59;;;15.83;56.96
8039;BME280;4062;49.844;8.120;2024-03-25T00:14:23;98530.59;;;15.83;57.01
8039;BME280;4062;49.844;8.120;2024-03-25T00:16:25;98531.50;;;15.84;56.98
8039;BME280;4062;49.844;8.120;2024-03-25T00:18:26;98530.59;;;15.83;56.92
8039;BME280;4062;49.844;8.120;2024-03-25T00:20:27;98526.25;;;15.82;56.90
8039;BME280;4062;49.844;8.120;2024-03-25T00:22:28;98530.69;;;15.82;57.02
8039;BME280;4062;49.844;8.120;2024-03-25T00:24:30;98536.88;;;15.82;57.10
8039;BME280;4062;49.844;8.120;2024-03-25T00:26:31;98536.13;;;15.80;56.81
8039;BME280;4062;49.844;8.120;2024-03-25T00:28:32;98535.16;;;15.81;57.01
8039;BME280;4062;49.844;8.120;2024-03-25T00:30:33;98532.50;;;15.81;56.72
8039;BME280;4062;49.844;8.120;2024-03-25T00:32:35;98539.63;;;15.81;57.02
8039;BME280;4062;49.844;8.120;2024-03-25T00:34:36;98530.84;;;15.78;56.76
8039;BME280;4062;49.844;8.120;2024-03-25T00:36:38;98537.06;;;15.79;56.87
8039;BME280;4062;49.844;8.120;2024-03-25T00:38:39;98532.56;;;15.79;56.88
8039;BME280;4062;49.844;8.120;2024-03-25T00:40:40;98535.34;;;15.78;56.87
8039;BME280;4062;49.844;8.120;2024-03-25T00:42:42;98531.84;;;15.77;57.07
8039;BME280;4062;49.844;8.120;2024-03-25T00:44:43;98532.69;;;15.78;56.96
8039;BME280;4062;49.844;8.120;2024-03-25T00:46:44;98530.97;;;15.77;57.03
8039;BME280;4062;49.844;8.120;2024-03-25T00:48:46;98529.16;;;15.77;56.92
8039;BME280;4062;49.844;8.120;2024-03-25T00:50:47;98530.13;;;15.76;56.92
8039;BME280;4062;49.844;8.120;2024-03-25T00:52:48;98532.78;;;15.76;56.98
8039;BME280;4062;49.844;8.120;2024-03-25T00:54:50;98533.72;;;15.75;56.99
8039;BME280;4062;49.844;8.120;2024-03-25T00:56:51;98533.72;;;15.75;56.82
8039;BME280;4062;49.844;8.120;2024-03-25T00:58:52;98534.66;;;15.74;56.95
8039;BME280;4062;49.844;8.120;2024-03-25T01:00:53;98523.16;;;15.74;57.03
8039;BME280;4062;49.844;8.120;2024-03-25T01:02:55;98524.03;;;15.74;56.92
8039;BME280;4062;49.844;8.120;2024-03-25T01:04:56;98524.97;;;15.73;57.01
8039;BME280;4062;49.844;8.120;2024-03-25T01:06:58;98527.63;;;15.73;57.01
8039;BME280;4062;49.844;8.120;2024-03-25T01:08:59;98526.78;;;15.73;57.04
8039;BME280;4062;49.844;8.120;2024-03-25T01:11:00;98530.28;;;15.73;56.83
8039;BME280;4062;49.844;8.120;2024-03-25T01:13:01;98526.78;;;15.73;56.91
8039;BME280;4062;49.844;8.120;2024-03-25T01:15:03;98532.09;;;15.73;56.90
8039;BME280;4062;49.844;8.120;2024-03-25T01:17:06;98522.41;;;15.72;56.83
8039;BME280;4062;49.844;8.120;2024-03-25T01:19:07;98527.72;;;15.72;56.91
8039;BME280;4062;49.844;8.120;2024-03-25T01:21:08;98526.00;;;15.71;57.03
8039;BME280;4062;49.844;8.120;2024-03-25T01:23:10;98523.41;;;15.69;56.91
8039;BME280;4062;49.844;8.120;2024-03-25T01:25:12;98529.63;;;15.70;56.90
8039;BME280;4062;49.844;8.120;2024-03-25T01:27:13;98525.13;;;15.70;56.91
8039;BME280;4062;49.844;8.120;2024-03-25T01:29:14;98534.06;;;15.69;57.06
8039;BME280;4062;49.844;8.120;2024-03-25T01:31:15;98520.75;;;15.69;57.06
8039;BME280;4062;49.844;8.120;2024-03-25T01:33:16;98524.41;;;15.68;57.05
8039;BME280;4062;49.844;8.120;2024-03-25T01:35:18;98524.41;;;15.68;57.08
8039;BME280;4062;49.844;8.120;2024-03-25T01:37:19;98512.88;;;15.68;56.91
8039;BME280;4062;49.844;8.120;2024-03-25T01:39:20;98524.41;;;15.68;56.87
8039;BME280;4062;49.844;8.120;2024-03-25T01:41:23;98511.16;;;15.67;56.93
8039;BME280;4062;49.844;8.120;2024-03-25T01:43:24;98524.47;;;15.67;56.85
8039;BME280;4062;49.844;8.120;2024-03-25T01:45:31;98527.13;;;15.67;57.05
8039;BME280;4062;49.844;8.120;2024-03-25T01:47:32;98523.63;;;15.66;56.96
8039;BME280;4062;49.844;8.120;2024-03-25T01:49:36;98521.91;;;15.65;56.94
8039;BME280;4062;49.844;8.120;2024-03-25T01:51:39;98520.09;;;15.66;57.00
8039;BME280;4062;49.844;8.120;2024-03-25T01:53:41;98529.88;;;15.65;57.01
8039;BME280;4062;49.844;8.120;2024-03-25T01:55:43;98522.84;;;15.64;56.98
8039;BME280;4062;49.844;8.120;2024-03-25T01:57:45;98525.50;;;15.64;56.97
8039;BME280;4062;49.844;8.120;2024-03-25T01:59:47;98531.69;;;15.64;57.08
8039;BME280;4062;49.844;8.120;2024-03-25T02:01:48;98522.00;;;15.63;57.02
8039;BME280;4062;49.844;8.120;2024-03-25T02:03:50;98519.34;;;15.63;56.94
8039;BME280;4062;49.844;8.120;2024-03-25T02:05:57;98524.66;;;15.63;57.10
8039;BME280;4062;49.844;8.120;2024-03-25T02:08:01;98515.03;;;15.61;57.04
8039;BME280;4062;49.844;8.120;2024-03-25T02:10:04;98512.28;;;15.62;57.10
8039;BME280;4062;49.844;8.120;2024-03-25T02:12:06;98512.38;;;15.61;57.08
8039;BME280;4062;49.844;8.120;2024-03-25T02:14:07;98517.69;;;15.61;57.10
8039;BME280;4062;49.844;8.120;2024-03-25T02:16:09;98513.25;;;15.61;57.05
8039;BME280;4062;49.844;8.120;2024-03-25T02:18:11;98515.91;;;15.61;56.99
8039;BME280;4062;49.844;8.120;2024-03-25T02:20:13;98516.84;;;15.60;57.15
8039;BME280;4062;49.844;8.120;2024-03-25T02:22:16;98522.16;;;15.60;57.03
8039;BME280;4062;49.844;8.120;2024-03-25T02:24:19;98531.94;;;15.60;57.10
8039;BME280;4062;49.844;8.120;2024-03-25T02:26:21;98528.44;;;15.59;57.06
8039;BME280;4062;49.844;8.120;2024-03-25T02:28:24;98517.78;;;15.59;57.10
8039;BME280;4062;49.844;8.120;2024-03-25T02:30:25;98518.63;;;15.60;57.11
8039;BME280;4062;49.844;8.120;2024-03-25T02:32:26;98516.94;;;15.59;57.19
8039;BME280;4062;49.844;8.120;2024-03-25T02:34:28;98517.78;;;15.59;57.12
8039;BME280;4062;49.844;8.120;2024-03-25T02:36:29;98517.88;;;15.58;57.09
8039;BME280;4062;49.844;8.120;2024-03-25T02:38:30;98518.72;;;15.58;57.11
8039;BME280;4062;49.844;8.120;2024-03-25T02:40:34;98523.22;;;15.58;56.98
8039;BME280;4062;49.844;8.120;2024-03-25T02:42:36;98528.53;;;15.58;57.11
8039;BME280;4062;49.844;8.120;2024-03-25T02:44:38;98528.53;;;15.58;57.17
8039;BME280;4062;49.844;8.120;2024-03-25T02:46:40;98526.81;;;15.57;57.03
8039;BME280;4062;49.844;8.120;2024-03-25T02:48:42;98533.00;;;15.57;57.08
8039;BME280;4062;49.844;8.120;2024-03-25T02:50:43;98529.47;;;15.57;57.08
8039;BME280;4062;49.844;8.120;2024-03-25T02:52:44;98533.94;;;15.56;57.14
8039;BME280;4062;49.844;8.120;2024-03-25T02:54:45;98533.09;;;15.56;57.03
8039;BME280;4062;49.844;8.120;2024-03-25T02:56:47;98533.94;;;15.56;57.06
8039;BME280;4062;49.844;8.120;2024-03-25T02:58:48;98529.56;;;15.55;57.06
8039;BME280;4062;49.844;8.120;2024-03-25T03:00:49;98529.56;;;15.55;57.21
8039;BME280;4062;49.844;8.120;2024-03-25T03:02:50;98522.53;;;15.54;57.08
8039;BME280;4062;49.844;8.120;2024-03-25T03:04:51;98527.88;;;15.54;57.11
8039;BME280;4062;49.844;8.120;2024-03-25T03:06:53;98527.00;;;15.54;57.11
8039;BME280;4062;49.844;8.120;2024-03-25T03:08:54;98526.16;;;15.53;57.11
8039;BME280;4062;49.844;8.120;2024-03-25T03:10:55;98524.31;;;15.54;57.11
8039;BME280;4062;49.844;8.120;2024-03-25T03:12:56;98527.88;;;15.54;57.02
8039;BME280;4062;49.844;8.120;2024-03-25T03:14:58;98523.50;;;15.53;57.15
8039;BME280;4062;49.844;8.120;2024-03-25T03:16:59;98526.16;;;15.53;57.19
8039;BME280;4062;49.844;8.120;2024-03-25T03:19:00;98524.44;;;15.52;57.03
8039;BME280;4062;49.844;8.120;2024-03-25T03:21:02;98523.56;;;15.52;57.13
8039;BME280;4062;49.844;8.120;2024-03-25T03:23:03;98524.44;;;15.52;57.06
8039;BME280;4062;49.844;8.120;2024-03-25T03:25:05;98524.44;;;15.52;56.96
8039;BME280;4062;49.844;8.120;2024-03-25T03:27:06;98524.44;;;15.52;57.02
8039;BME280;4062;49.844;8.120;2024-03-25T03:29:07;98525.38;;;15.51;57.11
8039;BME280;4062;49.844;8.120;2024-03-25T03:31:08;98527.09;;;15.52;57.18
8039;BME280;4062;49.844;8.120;2024-03-25T03:33:10;98525.38;;;15.51;57.04
8039;BME280;4062;49.844;8.120;2024-03-25T03:35:11;98524.50;;;15.51;57.13
8039;BME280;4062;49.844;8.120;2024-03-25T03:37:12;98530.69;;;15.51;57.04
8039;BME280;4062;49.844;8.120;2024-03-25T03:39:14;98528.88;;;15.52;57.04
8039;BME280;4062;49.844;8.120;2024-03-25T03:41:15;98527.09;;;15.52;57.13
8039;BME280;4062;49.844;8.120;2024-03-25T03:43:17;98524.44;;;15.52;57.03
8039;BME280;4062;49.844;8.120;2024-03-25T03:45:18;98524.44;;;15.52;57.17
8039;BME280;4062;49.844;8.120;2024-03-25T03:47:19;98527.94;;;15.53;56.96
8039;BME280;4062;49.844;8.120;2024-03-25T03:49:20;98522.63;;;15.53;56.99
8039;BME280;4062;49.844;8.120;2024-03-25T03:51:22;98523.50;;;15.53;56.99
8039;BME280;4062;49.844;8.120;2024-03-25T03:53:23;98527.00;;;15.54;57.03
8039;BME280;4062;49.844;8.120;2024-03-25T03:55:24;98522.63;;;15.53;57.03
8039;BME280;4062;49.844;8.120;2024-03-25T03:57:25;98525.19;;;15.54;57.09
8039;BME280;4062;49.844;8.120;2024-03-25T03:59:27;98524.31;;;15.54;57.11
8039;BME280;4062;49.844;8.120;2024-03-25T04:01:28;98517.28;;;15.53;57.11
8039;BME280;4062;49.844;8.120;2024-03-25T04:03:29;98515.50;;;15.53;57.15
8039;BME280;4062;49.844;8.120;2024-03-25T04:05:31;98520.81;;;15.53;57.03
8039;BME280;4062;49.844;8.120;2024-03-25T04:07:35;98518.16;;;15.53;57.08
8039;BME280;4062;49.844;8.120;2024-03-25T04:09:36;98516.34;;;15.54;57.23
8039;BME280;4062;49.844;8.120;2024-03-25T04:11:37;98515.50;;;15.53;57.21
8039;BME280;4062;49.844;8.120;2024-03-25T04:13:39;98505.69;;;15.54;57.07
8039;BME280;4062;49.844;8.120;2024-03-25T04:15:41;98515.50;;;15.53;57.08
8039;BME280;4062;49.844;8.120;2024-03-25T04:17:43;98515.50;;;15.53;57.12
8039;BME280;4062;49.844;8.120;2024-03-25T04:19:46;98510.19;;;15.53;57.26
8039;BME280;4062;49.844;8.120;2024-03-25T04:21:47;98505.78;;;15.52;57.11
8039;BME280;4062;49.844;8.120;2024-03-25T04:23:48;98508.47;;;15.52;57.10
8039;BME280;4062;49.844;8.120;2024-03-25T04:25:51;98514.63;;;15.53;57.19
8039;BME280;4062;49.844;8.120;2024-03-25T04:27:52;98503.97;;;15.53;57.17
8039;BME280;4062;49.844;8.120;2024-03-25T04:29:53;98505.78;;;15.52;57.08
8039;BME280;4062;49.844;8.120;2024-03-25T04:31:54;98503.13;;;15.52;57.12
8039;BME280;4062;49.844;8.120;2024-03-25T04:33:56;98502.25;;;15.52;57.19
8039;BME280;4062;49.844;8.120;2024-03-25T04:35:57;98502.25;;;15.52;57.19
8039;BME280;4062;49.844;8.120;2024-03-25T04:37:58;98505.78;;;15.52;57.05
8039;BME280;4062;49.844;8.120;2024-03-25T04:40:00;98507.59;;;15.52;57.24
8039;BME280;4062;49.844;8.120;2024-03-25T04:42:01;98514.72;;;15.51;57.11
8039;BME280;4062;49.844;8.120;2024-03-25T04:44:04;98515.66;;;15.50;57.20
8039;BME280;4062;49.844;8.120;2024-03-25T04:46:05;98520.91;;;15.52;57.16
8039;BME280;4062;49.844;8.120;2024-03-25T04:48:07;98518.22;;;15.52;57.19
8039;BME280;4062;49.844;8.120;2024-03-25T04:50:11;98528.03;;;15.51;57.11
8039;BME280;4062;49.844;8.120;2024-03-25T04:52:13;98525.38;;;15.51;57.19
8039;BME280;4062;49.844;8.120;2024-03-25T04:54:16;98528.03;;;15.51;57.21
8039;BME280;4062;49.844;8.120;2024-03-25T04:56:17;98528.03;;;15.51;57.11
8039;BME280;4062;49.844;8.120;2024-03-25T04:58:19;98521.84;;;15.51;57.12
8039;BME280;4062;49.844;8.120;2024-03-25T05:00:21;98520.91;;;15.52;57.17
8039;BME280;4062;49.844;8.120;2024-03-25T05:02:22;98530.69;;;15.51;57.18
8039;BME280;4062;49.844;8.120;2024-03-25T05:04:24;98528.03;;;15.51;57.19
8039;BME280;4062;49.844;8.120;2024-03-25T05:06:25;98524.50;;;15.51;57.11
8039;BME280;4062;49.844;8.120;2024-03-25T05:08:26;98523.66;;;15.50;57.24
8039;BME280;4062;49.844;8.120;2024-03-25T05:10:28;98527.16;;;15.51;57.11
8039;BME280;4062;49.844;8.120;2024-03-25T05:12:29;98525.47;;;15.50;57.14
8039;BME280;4062;49.844;8.120;2024-03-25T05:14:31;98528.97;;;15.50;57.23
8039;BME280;4062;49.844;8.120;2024-03-25T05:16:32;98531.66;;;15.50;57.18
8039;BME280;4062;49.844;8.120;2024-03-25T05:18:33;98532.47;;;15.51;57.08
8039;BME280;4062;49.844;8.120;2024-03-25T05:20:41;98536.97;;;15.50;57.20
8039;BME280;4062;49.844;8.120;2024-03-25T05:22:42;98538.78;;;15.50;57.05
8039;BME280;4062;49.844;8.120;2024-03-25T05:24:44;98538.78;;;15.50;57.01
8039;BME280;4062;49.844;8.120;2024-03-25T05:26:45;98545.06;;;15.48;57.13
8039;BME280;4062;49.844;8.120;2024-03-25T05:28:51;98541.44;;;15.50;57.08
8039;BME280;4062;49.844;8.120;2024-03-25T05:30:53;98536.19;;;15.48;57.18
8039;BME280;4062;49.844;8.120;2024-03-25T05:32:54;98537.06;;;15.48;57.11
8039;BME280;4062;49.844;8.120;2024-03-25T05:34:55;98532.69;;;15.47;57.25
8039;BME280;4062;49.844;8.120;2024-03-25T05:36:56;98532.59;;;15.49;57.17
8039;BME280;4062;49.844;8.120;2024-03-25T05:38:58;98531.75;;;15.48;57.09
8039;BME280;4062;49.844;8.120;2024-03-25T05:41:01;98536.97;;;15.50;57.06
8039;BME280;4062;49.844;8.120;2024-03-25T05:43:02;98533.47;;;15.50;57.06
8039;BME280;4062;49.844;8.120;2024-03-25T05:45:04;98541.34;;;15.51;57.14
8039;BME280;4062;49.844;8.120;2024-03-25T05:47:05;98540.41;;;15.52;57.28
8039;BME280;4062;49.844;8.120;2024-03-25T05:49:06;98536.81;;;15.53;57.11
8039;BME280;4062;49.844;8.120;2024-03-25T05:51:07;98536.81;;;15.53;57.37
8039;BME280;4062;49.844;8.120;2024-03-25T05:53:09;98537.53;;;15.55;57.43
8039;BME280;4062;49.844;8.120;2024-03-25T05:55:10;98538.31;;;15.57;57.26
8039;BME280;4062;49.844;8.120;2024-03-25T05:57:11;98538.25;;;15.59;57.37
8039;BME280;4062;49.844;8.120;2024-03-25T05:59:12;98533.75;;;15.59;57.43
8039;BME280;4062;49.844;8.120;2024-03-25T06:01:14;98538.94;;;15.62;57.45
8039;BME280;4062;49.844;8.120;2024-03-25T06:03:16;98539.66;;;15.64;57.50
8039;BME280;4062;49.844;8.120;2024-03-25T06:05:18;98544.91;;;15.66;57.65
8039;BME280;4062;49.844;8.120;2024-03-25T06:07:19;98542.16;;;15.68;57.47
8039;BME280;4062;49.844;8.120;2024-03-25T06:09:20;98551.75;;;15.70;57.64
8039;BME280;4062;49.844;8.120;2024-03-25T06:11:22;98551.69;;;15.72;57.64
8039;BME280;4062;49.844;8.120;2024-03-25T06:13:23;98540.00;;;15.74;57.60
8039;BME280;4062;49.844;8.120;2024-03-25T06:15:24;98536.38;;;15.75;57.70
8039;BME280;4062;49.844;8.120;2024-03-25T06:17:26;98541.63;;;15.77;57.78
8039;BME280;4062;49.844;8.120;2024-03-25T06:19:27;98550.38;;;15.79;57.75
8039;BME280;4062;49.844;8.120;2024-03-25T06:21:28;98550.28;;;15.81;57.88
8039;BME280;4062;49.844;8.120;2024-03-25T06:23:30;98549.22;;;15.83;57.59
8039;BME280;4062;49.844;8.120;2024-03-25T06:25:31;98553.56;;;15.86;57.77
8039;BME280;4062;49.844;8.120;2024-03-25T06:27:34;98550.91;;;15.86;57.88
8039;BME280;4062;49.844;8.120;2024-03-25T06:29:35;98544.53;;;15.88;57.87
8039;BME280;4062;49.844;8.120;2024-03-25T06:31:36;98554.25;;;15.89;57.62
8039;BME280;4062;49.844;8.120;2024-03-25T06:33:57;98561.28;;;15.90;57.69
8039;BME280;4062;49.844;8.120;2024-03-25T06:36:18;98563.84;;;15.92;57.81
8039;BME280;4062;49.844;8.120;2024-03-25T06:38:20;98564.69;;;15.92;57.91
8039;BME280;4062;49.844;8.120;2024-03-25T06:40:21;98568.13;;;15.94;57.67
8039;BME280;4062;49.844;8.120;2024-03-25T06:42:23;98568.13;;;15.94;57.78
8039;BME280;4062;49.844;8.120;2024-03-25T06:44:24;98565.47;;;15.94;57.60
8039;BME280;4062;49.844;8.120;2024-03-25T06:46:26;98564.53;;;15.96;57.73
8039;BME280;4062;49.844;8.120;2024-03-25T06:48:27;98571.69;;;15.95;57.71
8039;BME280;4062;49.844;8.120;2024-03-25T06:50:28;98571.56;;;15.97;57.59
8039;BME280;4062;49.844;8.120;2024-03-25T06:52:29;98569.75;;;15.97;57.68
8039;BME280;4062;49.844;8.120;2024-03-25T06:54:31;98566.25;;;15.97;57.52
8039;BME280;4062;49.844;8.120;2024-03-25T06:56:32;98559.09;;;15.97;57.65
8039;BME280;4062;49.844;8.120;2024-03-25T06:58:33;98569.75;;;15.97;57.62
8039;BME280;4062;49.844;8.120;2024-03-25T07:00:35;98566.25;;;15.97;57.62
8039;BME280;4062;49.844;8.120;2024-03-25T07:02:36;98571.56;;;15.97;57.45
8039;BME280;4062;49.844;8.120;2024-03-25T07:04:37;98564.44;;;15.97;57.35
8039;BME280;4062;49.844;8.120;2024-03-25T07:06:38;98567.09;;;15.97;57.45
8039;BME280;4062;49.844;8.120;2024-03-25T07:08:40;98567.09;;;15.97;57.43
8039;BME280;4062;49.844;8.120;2024-03-25T07:10:44;98569.75;;;15.97;57.55
8039;BME280;4062;49.844;8.120;2024-03-25T07:12:45;98573.38;;;15.96;57.49
8039;BME280;4062;49.844;8.120;2024-03-25T07:14:47;98572.41;;;15.97;57.59
8039;BME280;4062;49.844;8.120;2024-03-25T07:16:48;98571.56;;;15.97;57.47
8039;BME280;4062;49.844;8.120;2024-03-25T07:18:49;98582.22;;;15.97;57.47
8039;BME280;4062;49.844;8.120;2024-03-25T07:20:51;98577.00;;;15.95;57.36
8039;BME280;4062;49.844;8.120;2024-03-25T07:22:52;98582.22;;;15.97;57.50
8039;BME280;4062;49.844;8.120;2024-03-25T07:24:56;98585.84;;;15.96;57.40
8039;BME280;4062;49.844;8.120;2024-03-25T07:26:57;98592.00;;;15.96;57.29
8039;BME280;4062;49.844;8.120;2024-03-25T07:28:58;98597.44;;;15.94;57.54
8039;BME280;4062;49.844;8.120;2024-03-25T07:31:00;98595.66;;;15.95;57.41
8039;BME280;4062;49.844;8.120;2024-03-25T07:33:01;98588.59;;;15.94;57.40
8039;BME280;4062;49.844;8.120;2024-03-25T07:35:02;98581.56;;;15.93;57.47
8039;BME280;4062;49.844;8.120;2024-03-25T07:37:05;98576.13;;;15.94;57.34
8039;BME280;4062;49.844;8.120;2024-03-25T07:39:07;98583.28;;;15.94;57.27
8039;BME280;4062;49.844;8.120;2024-03-25T07:41:11;98571.75;;;15.93;57.44
8039;BME280;4062;49.844;8.120;2024-03-25T07:43:13;98581.56;;;15.93;57.33
8039;BME280;4062;49.844;8.120;2024-03-25T07:45:14;98581.56;;;15.93;57.34
8039;BME280;4062;49.844;8.120;2024-03-25T07:47:16;98583.34;;;15.92;57.32
8039;BME280;4062;49.844;8.120;2024-03-25T07:49:17;98580.69;;;15.92;57.19
8039;BME280;4062;49.844;8.120;2024-03-25T07:51:18;98579.84;;;15.92;57.13
8039;BME280;4062;49.844;8.120;2024-03-25T07:53:20;98568.31;;;15.91;57.29
8039;BME280;4062;49.844;8.120;2024-03-25T07:55:21;98575.44;;;15.91;57.20
8039;BME280;4062;49.844;8.120;2024-03-25T07:57:22;98573.63;;;15.91;57.19
8039;BME280;4062;49.844;8.120;2024-03-25T07:59:23;98567.47;;;15.91;57.29
8039;BME280;4062;49.844;8.120;2024-03-25T08:01:25;98563.97;;;15.90;57.23
8039;BME280;4062;49.844;8.120;2024-03-25T08:03:26;98567.47;;;15.91;57.07
8039;BME280;4062;49.844;8.120;2024-03-25T08:05:30;98554.25;;;15.89;57.12
8039;BME280;4062;49.844;8.120;2024-03-25T08:07:31;98561.28;;;15.90;57.16
8039;BME280;4062;49.844;8.120;2024-03-25T08:09:33;98565.75;;;15.90;57.03
8039;BME280;4062;49.844;8.120;2024-03-25T08:11:34;98559.56;;;15.89;57.25
8039;BME280;4062;49.844;8.120;2024-03-25T08:13:36;98552.44;;;15.90;57.23
8039;BME280;4062;49.844;8.120;2024-03-25T08:15:37;98560.41;;;15.90;57.07
8039;BME280;4062;49.844;8.120;2024-03-25T08:17:38;98554.25;;;15.89;57.22
8039;BME280;4062;49.844;8.120;2024-03-25T08:19:39;98558.69;;;15.89;57.18
8039;BME280;4062;49.844;8.120;2024-03-25T08:21:41;98557.75;;;15.90;57.17
8039;BME280;4062;49.844;8.120;2024-03-25T08:23:44;98559.56;;;15.89;57.24
8039;BME280;4062;49.844;8.120;2024-03-25T08:25:45;98567.47;;;15.91;57.17
8039;BME280;4062;49.844;8.120;2024-03-25T08:27:46;98568.31;;;15.91;57.14
8039;BME280;4062;49.844;8.120;2024-03-25T08:29:48;98569.19;;;15.92;57.21
8039;BME280;4062;49.844;8.120;2024-03-25T08:31:52;98557.59;;;15.93;57.28
8039;BME280;4062;49.844;8.120;2024-03-25T08:33:53;98558.44;;;15.93;57.13
8039;BME280;4062;49.844;8.120;2024-03-25T08:35:54;98563.69;;;15.95;57.12
8039;BME280;4062;49.844;8.120;2024-03-25T08:37:56;98571.56;;;15.97;57.23
8039;BME280;4062;49.844;8.120;2024-03-25T08:39:57;98559.97;;;15.98;57.36
8039;BME280;4062;49.844;8.120;2024-03-25T08:41:58;98567.84;;;15.99;57.23
8039;BME280;4062;49.844;8.120;2024-03-25T08:43:59;98563.41;;;16.00;57.35
8039;BME280;4062;49.844;8.120;2024-03-25T08:46:00;98565.03;;;16.02;57.25
8039;BME280;4062;49.844;8.120;2024-03-25T08:48:02;98556.94;;;16.04;57.37
8039;BME280;4062;49.844;8.120;2024-03-25T08:50:04;98567.47;;;16.05;57.38
8039;BME280;4062;49.844;8.120;2024-03-25T08:52:05;98562.16;;;16.05;57.38
8039;BME280;4062;49.844;8.120;2024-03-25T08:54:07;98567.41;;;16.07;57.38
8039;BME280;4062;49.844;8.120;2024-03-25T08:56:08;98561.13;;;16.08;57.28
8039;BME280;4062;49.844;8.120;2024-03-25T08:58:09;98557.53;;;16.09;57.39
8039;BME280;4062;49.844;8.120;2024-03-25T09:00:11;98553.88;;;16.10;57.26
8039;BME280;4062;49.844;8.120;2024-03-25T09:02:13;98557.41;;;16.10;57.26
8039;BME280;4062;49.844;8.120;2024-03-25T09:04:14;98552.09;;;16.10;57.38
8039;BME280;4062;49.844;8.120;2024-03-25T09:06:15;98548.47;;;16.12;57.44
8039;BME280;4062;49.844;8.120;2024-03-25T09:08:17;98553.81;;;16.12;57.25
8039;BME280;4062;49.844;8.120;2024-03-25T09:10:19;98549.31;;;16.12;57.35
8039;BME280;4062;49.844;8.120;2024-03-25T09:12:39;98541.34;;;16.12;57.31
8039;BME280;4062;49.844;8.120;2024-03-25T09:14:40;98551.03;;;16.13;57.28
8039;BME280;4062;49.844;8.120;2024-03-25T09:16:42;98549.25;;;16.14;57.30
8039;BME280;4062;49.844;8.120;2024-03-25T09:18:44;98545.59;;;16.15;57.23
8039;BME280;4062;49.844;8.120;2024-03-25T09:20:45;98548.28;;;16.15;57.23
8039;BME280;4062;49.844;8.120;2024-03-25T09:22:47;98546.47;;;16.15;57.30
8039;BME280;4062;49.844;8.120;2024-03-25T09:24:49;98542.09;;;16.14;57.21
8039;BME280;4062;49.844;8.120;2024-03-25T09:26:51;98535.81;;;16.15;57.35
8039;BME280;4062;49.844;8.120;2024-03-25T09:28:53;98529.63;;;16.15;57.39
8039;BME280;4062;49.844;8.120;2024-03-25T09:30:54;98533.16;;;16.15;57.35
8039;BME280;4062;49.844;8.120;2024-03-25T09:32:55;98526.00;;;16.16;57.10
8039;BME280;4062;49.844;8.120;2024-03-25T09:34:57;98518.00;;;16.16;57.30
8039;BME280;4062;49.844;8.120;2024-03-25T09:36:58;98518.97;;;16.15;57.30
8039;BME280;4062;49.844;8.120;2024-03-25T09:39:00;98517.16;;;16.15;57.19
8039;BME280;4062;49.844;8.120;2024-03-25T09:41:01;98510.13;;;16.14;57.32
8039;BME280;4062;49.844;8.120;2024-03-25T09:43:03;98510.97;;;16.15;57.29
8039;BME280;4062;49.844;8.120;2024-03-25T09:45:08;98508.31;;;16.15;57.26
8039;BME280;4062;49.844;8.120;2024-03-25T09:47:11;98498.50;;;16.15;57.11
8039;BME280;4062;49.844;8.120;2024-03-25T09:49:13;98495.84;;;16.15;57.18
8039;BME280;4062;49.844;8.120;2024-03-25T09:51:16;98494.13;;;16.14;57.07
8039;BME280;4062;49.844;8.120;2024-03-25T09:53:17;98493.19;;;16.15;57.13
8039;BME280;4062;49.844;8.120;2024-03-25T09:55:19;98494.97;;;16.15;57.26
8039;BME280;4062;49.844;8.120;2024-03-25T09:57:21;98478.16;;;16.14;57.00
8039;BME280;4062;49.844;8.120;2024-03-25T09:59:22;98479.00;;;16.15;57.07
8039;BME280;4062;49.844;8.120;2024-03-25T10:01:23;98475.47;;;16.14;57.25
8039;BME280;4062;49.844;8.120;2024-03-25T10:03:25;98472.81;;;16.14;57.01
8039;BME280;4062;49.844;8.120;2024-03-25T10:05:26;98474.63;;;16.14;57.24
8039;BME280;4062;49.844;8.120;2024-03-25T10:07:27;98471.97;;;16.14;56.98
8039;BME280;4062;49.844;8.120;2024-03-25T10:09:28;98471.09;;;16.13;57.07
8039;BME280;4062;49.844;8.120;2024-03-25T10:11:29;98473.75;;;16.13;57.02
8039;BME280;4062;49.844;8.120;2024-03-25T10:13:33;98470.25;;;16.13;57.07
8039;BME280;4062;49.844;8.120;2024-03-25T10:15:34;98465.78;;;16.13;57.22
8039;BME280;4062;49.844;8.120;2024-03-25T10:17:35;98462.25;;;16.13;57.11
8039;BME280;4062;49.844;8.120;2024-03-25T10:19:37;98459.59;;;16.13;56.95
8039;BME280;4062;49.844;8.120;2024-03-25T10:21:38;98459.59;;;16.13;56.96
8039;BME280;4062;49.844;8.120;2024-03-25T10:23:41;98457.78;;;16.13;56.95
8039;BME280;4062;49.844;8.120;2024-03-25T10:25:44;98452.56;;;16.12;57.15
8039;BME280;4062;49.844;8.120;2024-03-25T10:28:00;98444.56;;;16.12;57.05
8039;BME280;4062;49.844;8.120;2024-03-25T10:30:02;98447.22;;;16.12;57.11
8039;BME280;4062;49.844;8.120;2024-03-25T10:32:03;98445.41;;;16.12;56.95
8039;BME280;4062;49.844;8.120;2024-03-25T10:34:05;98438.34;;;16.11;57.09
8039;BME280;4062;49.844;8.120;2024-03-25T10:36:08;98444.56;;;16.12;56.95
8039;BME280;4062;49.844;8.120;2024-03-25T10:38:10;98443.69;;;16.11;57.01
8039;BME280;4062;49.844;8.120;2024-03-25T10:40:12;98436.47;;;16.13;56.99
8039;BME280;4062;49.844;8.120;2024-03-25T10:42:15;98436.56;;;16.12;57.08
8039;BME280;4062;49.844;8.120;2024-03-25T10:44:19;98432.06;;;16.12;57.00
8039;BME280;4062;49.844;8.120;2024-03-25T10:46:22;98433.78;;;16.13;56.86
8039;BME280;4062;49.844;8.120;2024-03-25T10:48:31;98429.34;;;16.14;57.17
8039;BME280;4062;49.844;8.120;2024-03-25T10:50:37;98431.03;;;16.15;57.12
8039;BME280;4062;49.844;8.120;2024-03-25T10:52:39;98425.69;;;16.15;57.17
8039;BME280;4062;49.844;8.120;2024-03-25T10:54:42;98423.91;;;16.15;57.24
8039;BME280;4062;49.844;8.120;2024-03-25T10:56:44;98415.91;;;16.15;56.95
8039;BME280;4062;49.844;8.120;2024-03-25T10:58:49;98403.44;;;16.16;57.09
8039;BME280;4062;49.844;8.120;2024-03-25T11:00:52;98401.63;;;16.16;57.04
8039;BME280;4062;49.844;8.120;2024-03-25T11:02:58;98404.31;;;16.16;56.92